createdAt,value
2023-02-04T00:02:19.677Z,103028.97
2023-02-04T00:04:49.527Z,103031.72
2023-02-04T00:07:19.424Z,103042.31
2023-02-04T00:09:50.186Z,103044.16
2023-02-04T00:12:20.073Z,103055.56
2023-02-04T00:14:52.438Z,103057.53
2023-02-04T00:17:22.270Z,103064.59
2023-02-04T00:19:52.043Z,103066.44
2023-02-04T00:22:21.846Z,103062.09
2023-02-04T00:24:51.722Z,103068.25
2023-02-04T00:27:21.519Z,103074.31
2023-02-04T00:29:53.959Z,103076.13
2023-02-04T00:32:23.830Z,103080.56
2023-02-04T00:34:54.054Z,103083.09
2023-02-04T00:37:24.008Z,103096.06
2023-02-04T00:39:54.177Z,103101.31
2023-02-04T00:42:24.114Z,103102.22
2023-02-04T00:44:56.664Z,103104.06
2023-02-04T00:47:26.483Z,103110.22
2023-02-04T00:49:56.384Z,103106.78
2023-02-04T00:52:26.274Z,103112.03
2023-02-04T00:54:56.098Z,103113.88
2023-02-04T00:57:25.860Z,103110.44
2023-02-04T00:59:58.324Z,103100.78
2023-02-04T01:02:28.529Z,103109.69
2023-02-04T01:04:58.458Z,103104.31
2023-02-04T01:07:28.421Z,103106.78
2023-02-04T01:09:58.243Z,103102.50
2023-02-04T01:12:28.935Z,103102.50
2023-02-04T01:15:01.553Z,103112.31
2023-02-04T01:17:31.416Z,103121.75
2023-02-04T01:20:01.178Z,103121.63
2023-02-04T01:22:30.990Z,103126.22
2023-02-04T01:25:00.811Z,103127.03
2023-02-04T01:27:30.724Z,103138.28
2023-02-04T01:30:03.118Z,103146.97
2023-02-04T01:32:32.974Z,103144.34
2023-02-04T01:35:02.928Z,103148.78
2023-02-04T01:37:32.827Z,103144.34
2023-02-04T01:40:02.662Z,103156.66
2023-02-04T01:42:32.531Z,103166.34
2023-02-04T01:45:06.465Z,103161.88
2023-02-04T01:47:36.625Z,103171.38
2023-02-04T01:50:07.053Z,103174.91
2023-02-04T01:52:39.974Z,103181.72
2023-02-04T01:55:17.875Z,103176.47
2023-02-04T01:57:48.722Z,103187.63
2023-02-04T02:00:27.732Z,103175.31
2023-02-04T02:02:57.987Z,103180.31
2023-02-04T02:05:31.020Z,103177.69
2023-02-04T02:08:03.361Z,103188.16
2023-02-04T02:10:34.109Z,103191.59
2023-02-04T02:13:04.775Z,103195.13
2023-02-04T02:15:37.589Z,103197.75
2023-02-04T02:18:07.676Z,103205.59
2023-02-04T02:20:37.680Z,103201.41
2023-02-04T02:23:13.974Z,103202.97
2023-02-04T02:25:46.631Z,103199.47
2023-02-04T02:28:19.832Z,103205.50
2023-02-04T02:30:51.723Z,103204.47
2023-02-04T02:33:25.612Z,103204.47
2023-02-04T02:35:55.659Z,103207.19
2023-02-04T02:38:25.597Z,103206.94
2023-02-04T02:40:59.202Z,103205.38
2023-02-04T02:43:42.020Z,103201.84
2023-02-04T02:46:15.308Z,103204.69
2023-02-04T02:48:45.225Z,103212.44
2023-02-04T02:51:15.151Z,103209.69
2023-02-04T02:53:47.661Z,103217.66
2023-02-04T02:56:21.605Z,103222.00
2023-02-04T03:03:33.396Z,103235.44
2023-02-04T03:06:42.569Z,103244.91
2023-02-04T03:09:15.399Z,103250.41
2023-02-04T03:11:48.879Z,103244.91
2023-02-04T03:14:18.915Z,103241.91
2023-02-04T03:16:51.195Z,103254.66
2023-02-04T03:19:21.062Z,103261.47
2023-02-04T03:21:50.947Z,103258.69
2023-02-04T03:24:21.321Z,103254.25
2023-02-04T03:26:53.775Z,103250.84
2023-02-04T03:29:23.662Z,103263.03
2023-02-04T03:31:55.507Z,103262.88
2023-02-04T03:34:25.868Z,103264.59
2023-02-04T03:36:55.666Z,103274.16
2023-02-04T03:39:25.500Z,103270.63
2023-02-04T03:41:57.934Z,103273.00
2023-02-04T03:44:28.076Z,103292.09
2023-02-04T03:46:58.154Z,103283.47
2023-02-04T03:49:28.573Z,103287.41
2023-02-04T03:51:58.365Z,103299.84
2023-02-04T03:54:28.161Z,103293.94
2023-02-04T03:57:00.673Z,103299.69
2023-02-04T03:59:30.565Z,103297.31
2023-02-04T04:02:00.507Z,103307.16
2023-02-04T04:04:30.394Z,103302.56
2023-02-04T04:07:00.220Z,103309.38
2023-02-04T04:09:29.987Z,103312.66
2023-02-04T04:12:04.009Z,103317.78
2023-02-04T04:14:33.760Z,103320.16
2023-02-04T04:17:03.595Z,103332.31
2023-02-04T04:19:34.673Z,103320.91
2023-02-04T04:22:04.548Z,103320.16
2023-02-04T04:24:34.319Z,103333.34
2023-02-04T04:27:06.846Z,103333.50
2023-02-04T04:29:38.854Z,103338.84
2023-02-04T04:32:09.898Z,103352.88
2023-02-04T04:34:39.868Z,103347.66
2023-02-04T04:37:09.665Z,103354.84
2023-02-04T04:39:40.559Z,103357.06
2023-02-04T04:42:12.953Z,103369.78
2023-02-04T04:44:42.747Z,103368.34
2023-02-04T04:47:12.764Z,103370.97
2023-02-04T04:49:42.646Z,103371.97
2023-02-04T04:52:12.533Z,103379.34
2023-02-04T04:54:42.431Z,103383.00
2023-02-04T04:57:14.977Z,103381.44
2023-02-04T04:59:44.784Z,103375.53
2023-02-04T05:02:14.654Z,103373.03
2023-02-04T05:04:44.648Z,103373.03
2023-02-04T05:07:14.586Z,103377.34
2023-02-04T05:09:44.385Z,103375.66
2023-02-04T05:12:16.763Z,103376.56
2023-02-04T05:14:46.540Z,103376.69
2023-02-04T05:17:16.310Z,103381.94
2023-02-04T05:19:46.100Z,103380.88
2023-02-04T05:22:15.881Z,103393.88
2023-02-04T05:24:45.899Z,103394.66
2023-02-04T05:27:18.417Z,103394.66
2023-02-04T05:29:48.333Z,103406.03
2023-02-04T05:32:18.208Z,103408.81
2023-02-04T05:34:48.066Z,103406.03
2023-02-04T05:37:21.116Z,103405.03
2023-02-04T05:39:50.891Z,103403.19
2023-02-04T05:42:23.260Z,103415.88
2023-02-04T05:44:53.045Z,103417.09
2023-02-04T05:47:23.081Z,103421.91
2023-02-04T05:49:52.915Z,103420.72
2023-02-04T05:52:22.728Z,103421.66
2023-02-04T05:54:52.530Z,103426.25
2023-02-04T05:57:24.902Z,103444.66
2023-02-04T05:59:54.673Z,103437.97
2023-02-04T06:02:24.507Z,103440.22
2023-02-04T06:04:54.370Z,103448.06
2023-02-04T06:07:24.176Z,103445.56
2023-02-04T06:09:54.090Z,103443.59
2023-02-04T06:12:26.481Z,103460.84
2023-02-04T06:14:56.319Z,103458.13
2023-02-04T06:17:26.195Z,103459.84
2023-02-04T06:19:55.956Z,103462.16
2023-02-04T06:22:26.943Z,103468.03
2023-02-04T06:24:56.698Z,103460.56
2023-02-04T06:27:29.188Z,103462.28
2023-02-04T06:29:59.030Z,103471.69
2023-02-04T06:32:28.791Z,103476.81
2023-02-04T06:34:58.604Z,103481.09
2023-02-04T06:37:28.374Z,103483.72
2023-02-04T06:39:58.183Z,103487.91
2023-02-04T06:42:30.598Z,103486.31
2023-02-04T06:45:00.359Z,103484.50
2023-02-04T06:47:30.133Z,103485.41
2023-02-04T06:49:59.889Z,103491.44
2023-02-04T06:52:29.710Z,103494.06
2023-02-04T06:54:59.620Z,103486.97
2023-02-04T06:57:32.013Z,103505.19
2023-02-04T07:00:01.880Z,103502.41
2023-02-04T07:02:31.733Z,103500.72
2023-02-04T07:05:02.312Z,103503.31
2023-02-04T07:07:32.449Z,103515.50
2023-02-04T07:10:02.532Z,103518.91
2023-02-04T07:12:34.988Z,103517.22
2023-02-04T07:15:04.762Z,103523.50
2023-02-04T07:17:34.565Z,103529.81
2023-02-04T07:20:04.310Z,103524.25
2023-02-04T07:22:34.044Z,103531.06
2023-02-04T07:25:03.839Z,103541.25
2023-02-04T07:27:36.288Z,103549.00
2023-02-04T07:30:06.631Z,103550.81
2023-02-04T07:32:36.402Z,103551.72
2023-02-04T07:35:06.300Z,103547.13
2023-02-04T07:37:36.269Z,103551.44
2023-02-04T07:40:06.111Z,103560.09
2023-02-04T07:42:38.501Z,103565.34
2023-02-04T07:45:09.050Z,103565.97
2023-02-04T07:47:38.809Z,103571.53
2023-02-04T07:50:09.462Z,103577.13
2023-02-04T07:52:39.230Z,103565.22
2023-02-04T07:55:10.354Z,103576.31
2023-02-04T07:57:42.707Z,103582.78
2023-02-04T08:00:15.948Z,103572.94
2023-02-04T08:02:45.752Z,103572.81
2023-02-04T08:05:16.105Z,103574.22
2023-02-04T08:07:45.965Z,103585.31
2023-02-04T08:10:16.220Z,103583.34
2023-02-04T08:12:48.952Z,103587.03
2023-02-04T08:15:18.854Z,103586.38
2023-02-04T08:17:48.602Z,103588.53
2023-02-04T08:20:18.583Z,103591.84
2023-02-04T08:22:48.511Z,103603.94
2023-02-04T08:25:18.988Z,103600.84
2023-02-04T08:27:51.392Z,103613.13
2023-02-04T08:30:21.542Z,103612.50
2023-02-04T08:32:51.452Z,103600.47
2023-02-04T08:35:21.522Z,103613.06
2023-02-04T08:37:51.280Z,103624.47
2023-02-04T08:40:21.689Z,103613.06
2023-02-04T08:42:54.118Z,103614.63
2023-02-04T08:45:24.205Z,103623.66
2023-02-04T08:47:53.980Z,103626.44
2023-02-04T08:50:23.757Z,103624.75
2023-02-04T08:52:53.527Z,103631.03
2023-02-04T08:55:23.308Z,103627.91
2023-02-04T08:57:56.030Z,103632.81
2023-02-04T09:00:26.194Z,103637.53
2023-02-04T09:02:55.955Z,103648.44
2023-02-04T09:05:25.741Z,103636.41
2023-02-04T09:07:55.592Z,103638.38
2023-02-04T09:10:25.393Z,103643.78
2023-02-04T09:12:57.980Z,103659.13
2023-02-04T09:15:28.004Z,103649.72
2023-02-04T09:18:04.864Z,103657.03
2023-02-04T09:20:36.806Z,103655.34
2023-02-04T09:23:09.018Z,103665.97
2023-02-04T09:25:38.793Z,103656.41
2023-02-04T09:28:12.925Z,103661.78
2023-02-04T09:30:44.048Z,103669.94
2023-02-04T09:33:15.441Z,103663.94
2023-02-04T09:35:45.247Z,103667.03
2023-02-04T09:38:15.011Z,103668.81
2023-02-04T09:40:47.365Z,103672.97
2023-02-04T09:43:25.355Z,103667.88
2023-02-04T09:45:56.908Z,103671.94
2023-02-04T09:48:27.915Z,103679.63
2023-02-04T09:51:07.933Z,103683.31
2023-02-04T09:53:39.574Z,103679.63
2023-02-04T09:56:13.181Z,103690.25
2023-02-04T09:58:45.998Z,103690.66
2023-02-04T10:01:19.049Z,103703.28
2023-02-04T10:03:52.287Z,103698.31
2023-02-04T10:06:23.725Z,103697.19
2023-02-04T10:08:54.956Z,103701.94
2023-02-04T10:11:27.574Z,103711.13
2023-02-04T10:14:00.105Z,103707.72
2023-02-04T10:16:34.961Z,103711.81
2023-02-04T10:19:07.428Z,103712.53
2023-02-04T10:21:40.518Z,103715.69
2023-02-04T10:24:16.817Z,103715.63
2023-02-04T10:26:46.878Z,103718.94
2023-02-04T10:29:21.598Z,103713.31
2023-02-04T10:31:52.726Z,103717.75
2023-02-04T10:34:24.276Z,103715.53
2023-02-04T10:36:57.873Z,103708.75
2023-02-04T10:39:29.512Z,103709.91
2023-02-04T10:42:00.652Z,103716.50
2023-02-04T10:44:36.143Z,103713.63
2023-02-04T10:47:08.665Z,103714.09
2023-02-04T10:49:38.438Z,103711.88
2023-02-04T10:52:19.718Z,103726.97
2023-02-04T10:54:50.559Z,103721.06
2023-02-04T10:57:25.192Z,103712.00
2023-02-04T11:00:00.852Z,103714.63
2023-02-04T11:02:44.238Z,103718.94
2023-02-04T11:05:17.672Z,103714.50
2023-02-04T11:07:48.897Z,103724.47
2023-02-04T11:10:21.513Z,103715.81
2023-02-04T11:13:06.840Z,103719.78
2023-02-04T11:15:51.211Z,103714.78
2023-02-04T11:18:32.980Z,103708.13
2023-02-04T11:21:03.126Z,103716.91
2023-02-04T11:23:39.736Z,103720.59
2023-02-04T11:26:13.396Z,103721.34
2023-02-04T11:28:58.429Z,103718.47
2023-02-04T11:31:53.443Z,103722.66
2023-02-04T11:34:32.598Z,103717.41
2023-02-04T11:37:18.958Z,103721.09
2023-02-04T11:39:50.865Z,103724.78
2023-02-04T11:42:26.031Z,103716.91
2023-02-04T11:44:57.890Z,103714.13
2023-02-04T11:47:36.809Z,103714.53
2023-02-04T11:50:15.877Z,103706.81
2023-02-04T11:52:45.693Z,103709.56
2023-02-04T11:55:18.016Z,103708.78
2023-02-04T11:57:48.123Z,103704.84
2023-02-04T12:00:20.417Z,103715.63
2023-02-04T12:02:54.545Z,103715.06
2023-02-04T12:05:24.801Z,103709.31
2023-02-04T12:07:54.618Z,103713.00
2023-02-04T12:10:28.558Z,103712.50
2023-02-04T12:13:01.058Z,103711.69
2023-02-04T12:15:36.792Z,103709.31
2023-02-04T12:18:12.576Z,103709.47
2023-02-04T12:20:42.456Z,103697.25
2023-02-04T12:23:12.233Z,103704.31
2023-02-04T12:25:42.085Z,103707.75
2023-02-04T12:28:11.874Z,103705.94
2023-02-04T12:30:41.737Z,103705.63
2023-02-04T12:33:15.113Z,103706.28
2023-02-04T12:35:45.320Z,103710.88
2023-02-04T12:38:15.140Z,103711.44
2023-02-04T12:40:53.976Z,103702.91
2023-02-04T12:43:26.116Z,103703.16
2023-02-04T12:45:57.016Z,103705.28
2023-02-04T12:48:29.488Z,103703.56
2023-02-04T12:50:59.431Z,103698.31
2023-02-04T12:53:29.272Z,103707.25
2023-02-04T12:55:59.590Z,103702.25
2023-02-04T12:58:29.385Z,103701.44
2023-02-04T13:00:59.287Z,103706.69
2023-02-04T13:03:31.750Z,103699.63
2023-02-04T13:06:01.803Z,103700.78
2023-02-04T13:08:31.632Z,103702.88
2023-02-04T13:11:01.612Z,103696.97
2023-02-04T13:13:31.426Z,103704.19
2023-02-04T13:16:01.278Z,103703.53
2023-02-04T13:18:34.145Z,103700.91
2023-02-04T13:21:04.727Z,103704.84
2023-02-04T13:23:34.581Z,103702.09
2023-02-04T13:26:04.511Z,103706.44
2023-02-04T13:28:34.336Z,103704.59
2023-02-04T13:31:04.566Z,103706.44
2023-02-04T13:33:37.388Z,103693.44
2023-02-04T13:36:08.385Z,103690.66
2023-02-04T13:38:38.534Z,103685.41
2023-02-04T13:41:08.393Z,103686.88
2023-02-04T13:43:38.222Z,103687.66
2023-02-04T13:46:08.255Z,103686.22
2023-02-04T13:48:40.708Z,103690.94
2023-02-04T13:51:10.527Z,103692.25
2023-02-04T13:53:40.311Z,103708.56
2023-02-04T13:56:10.376Z,103711.03
2023-02-04T13:58:43.873Z,103702.50
2023-02-04T14:01:13.824Z,103700.13
2023-02-04T14:03:46.756Z,103703.66
2023-02-04T14:06:20.640Z,103710.63
2023-02-04T14:08:50.809Z,103697.00
2023-02-04T14:11:20.605Z,103703.00
2023-02-04T14:13:50.369Z,103696.75
2023-02-04T14:16:20.253Z,103692.25
2023-02-04T14:18:53.156Z,103692.00
2023-02-04T14:21:23.310Z,103691.84
2023-02-04T14:23:53.078Z,103704.22
2023-02-04T14:26:22.874Z,103697.25
2023-02-04T14:28:52.691Z,103693.16
2023-02-04T14:31:22.725Z,103695.13
2023-02-04T14:33:56.466Z,103692.66
2023-02-04T14:36:26.271Z,103698.16
2023-02-04T14:38:56.093Z,103704.63
2023-02-04T14:41:26.567Z,103700.94
2023-02-04T14:43:56.365Z,103699.88
2023-02-04T14:46:26.326Z,103702.66
2023-02-04T14:48:58.876Z,103699.38
2023-02-04T14:51:28.664Z,103704.63
2023-02-04T14:53:58.489Z,103702.91
2023-02-04T14:56:28.293Z,103707.34
2023-02-04T14:58:58.050Z,103713.41
2023-02-04T15:01:28.014Z,103713.41
2023-02-04T15:04:02.181Z,103718.75
2023-02-04T15:06:31.999Z,103716.28
2023-02-04T15:09:01.779Z,103716.44
2023-02-04T15:11:32.365Z,103716.44
2023-02-04T15:14:02.227Z,103717.84
2023-02-04T15:16:32.126Z,103725.88
2023-02-04T15:19:04.531Z,103722.84
2023-02-04T15:21:34.316Z,103729.66
2023-02-04T15:24:04.171Z,103732.84
2023-02-04T15:26:33.952Z,103725.72
2023-02-04T15:29:03.895Z,103723.00
2023-02-04T15:31:34.623Z,103727.28
2023-02-04T15:34:07.083Z,103721.13
2023-02-04T15:36:36.853Z,103730.72
2023-02-04T15:39:07.244Z,103734.81
2023-02-04T15:41:37.012Z,103741.63
2023-02-04T15:44:07.888Z,103735.44
2023-02-04T15:46:37.820Z,103732.69
2023-02-04T15:49:10.314Z,103735.31
2023-02-04T15:51:40.119Z,103739.75
2023-02-04T15:54:09.896Z,103738.84
2023-02-04T15:56:39.708Z,103740.56
2023-02-04T15:59:09.519Z,103743.84
2023-02-04T16:01:39.355Z,103744.47
2023-02-04T16:04:11.776Z,103756.53
2023-02-04T16:06:50.193Z,103750.88
2023-02-04T16:09:23.387Z,103756.69
2023-02-04T16:11:53.163Z,103753.00
2023-02-04T16:14:22.930Z,103753.75
2023-02-04T16:16:52.864Z,103766.75
2023-02-04T16:19:25.279Z,103748.78
2023-02-04T16:21:55.082Z,103752.56
2023-02-04T16:24:24.895Z,103751.97
2023-02-04T16:26:54.804Z,103749.59
2023-02-04T16:29:24.639Z,103755.84
2023-02-04T16:31:54.706Z,103756.63
2023-02-04T16:34:28.422Z,103755.56
2023-02-04T16:36:58.230Z,103760.03
2023-02-04T16:39:41.682Z,103767.91
2023-02-04T16:42:12.811Z,103760.81
2023-02-04T16:44:43.121Z,103764.06
2023-02-04T16:47:13.516Z,103757.66
2023-02-04T16:49:46.285Z,103764.44
2023-02-04T16:52:16.057Z,103759.06
2023-02-04T16:54:45.850Z,103767.44
2023-02-04T16:57:16.235Z,103758.25
2023-02-04T16:59:46.032Z,103759.00
2023-02-04T17:02:15.849Z,103752.69
2023-02-04T17:04:48.317Z,103759.66
2023-02-04T17:07:18.140Z,103753.34
2023-02-04T17:09:47.963Z,103742.47
2023-02-04T17:12:17.808Z,103736.81
2023-02-04T17:14:47.608Z,103742.53
2023-02-04T17:17:18.394Z,103743.19
2023-02-04T17:19:50.761Z,103737.38
2023-02-04T17:22:20.503Z,103742.22
2023-02-04T17:24:50.287Z,103742.06
2023-02-04T17:27:20.185Z,103743.75
2023-02-04T17:29:49.972Z,103744.56
2023-02-04T17:32:19.729Z,103744.25
2023-02-04T17:34:54.979Z,103748.44
2023-02-04T17:37:24.917Z,103754.19
2023-02-04T17:39:54.715Z,103761.75
2023-02-04T17:42:24.482Z,103756.25
2023-02-04T17:44:54.367Z,103761.31
2023-02-04T17:47:24.633Z,103758.53
2023-02-04T17:49:57.051Z,103763.66
2023-02-04T17:52:27.041Z,103768.91
2023-02-04T17:54:57.210Z,103761.81
2023-02-04T17:57:27.051Z,103762.59
2023-02-04T17:59:57.158Z,103758.91
2023-02-04T18:02:30.004Z,103758.34
2023-02-04T18:05:11.289Z,103767.75
2023-02-04T18:07:41.238Z,103772.72
2023-02-04T18:10:21.949Z,103775.03
2023-02-04T18:12:51.820Z,103772.13
2023-02-04T18:15:29.376Z,103766.75
2023-02-04T18:18:09.390Z,103773.38
2023-02-04T18:20:41.921Z,103782.66
2023-02-04T18:23:18.237Z,103781.59
2023-02-04T18:25:49.031Z,103781.31
2023-02-04T18:28:21.375Z,103775.91
2023-02-04T18:30:57.881Z,103773.13
2023-02-04T18:33:33.413Z,103772.38
2023-02-04T18:36:06.145Z,103775.00
2023-02-04T18:38:39.402Z,103776.84
2023-02-04T18:41:25.658Z,103784.69
2023-02-04T18:44:18.540Z,103782.22
2023-02-04T18:46:50.767Z,103790.06
2023-02-04T18:49:29.709Z,103784.97
2023-02-04T18:52:06.507Z,103783.28
2023-02-04T18:54:38.892Z,103779.59
2023-02-04T18:57:39.388Z,103779.44
2023-02-04T19:00:26.959Z,103776.72
2023-02-04T19:03:01.476Z,103774.09
2023-02-04T19:05:37.122Z,103775.75
2023-02-04T19:08:33.872Z,103775.91
2023-02-04T19:11:03.824Z,103773.94
2023-02-04T19:13:42.083Z,103771.16
2023-02-04T19:16:25.665Z,103768.41
2023-02-04T19:18:57.244Z,103764.72
2023-02-04T19:21:30.540Z,103771.03
2023-02-04T19:24:17.701Z,103773.66
2023-02-04T19:26:53.590Z,103767.63
2023-02-04T19:29:40.749Z,103762.38
2023-02-04T19:32:32.664Z,103765.00
2023-02-04T19:35:19.793Z,103765.00
2023-02-04T19:37:55.975Z,103765.00
2023-02-04T19:40:39.028Z,103761.75
2023-02-04T19:43:24.341Z,103759.13
2023-02-04T19:45:56.677Z,103760.84
2023-02-04T19:48:35.714Z,103753.16
2023-02-04T19:51:21.339Z,103751.56
2023-02-04T19:53:52.424Z,103754.34
2023-02-04T19:56:37.348Z,103738.00
2023-02-04T19:59:25.459Z,103750.19
2023-02-04T20:02:02.825Z,103752.78
2023-02-04T20:04:39.176Z,103746.78
2023-02-04T20:07:21.143Z,103741.41
2023-02-04T20:09:54.941Z,103738.91
2023-02-04T20:12:29.732Z,103749.38
2023-02-04T20:15:00.540Z,103749.38
2023-02-04T20:17:41.726Z,103750.34
2023-02-04T20:20:23.118Z,103758.19
2023-02-04T20:22:55.312Z,103749.38
2023-02-04T20:25:50.639Z,103754.63
2023-02-04T20:28:42.948Z,103753.56
2023-02-04T20:31:27.474Z,103745.69
2023-02-04T20:33:59.586Z,103743.88
2023-02-04T20:36:42.469Z,103752.63
2023-02-04T20:39:38.035Z,103742.03
2023-02-04T20:42:47.358Z,103738.34
2023-02-04T20:45:38.894Z,103734.66
2023-02-04T20:48:30.366Z,103735.47
2023-02-04T20:51:03.016Z,103734.38
2023-02-04T20:53:40.933Z,103717.59
2023-02-04T20:56:25.484Z,103712.22
2023-02-04T20:58:59.334Z,103710.25
2023-02-04T21:01:39.791Z,103714.44
2023-02-04T21:04:22.396Z,103697.38
2023-02-04T21:06:53.770Z,103692.63
2023-02-04T21:09:26.857Z,103694.97
2023-02-04T21:11:58.356Z,103706.81
2023-02-04T21:14:29.684Z,103707.44
2023-02-04T21:17:02.158Z,103726.53
2023-02-04T21:19:34.010Z,103728.38
2023-02-04T21:22:04.656Z,103722.22
2023-02-04T21:24:34.684Z,103722.38
2023-02-04T21:27:04.818Z,103730.34
2023-02-04T21:29:34.606Z,103724.50
2023-02-04T21:32:08.618Z,103719.41
2023-02-04T21:34:38.431Z,103719.41
2023-02-04T21:37:08.258Z,103712.34
2023-02-04T21:39:38.030Z,103705.91
2023-02-04T21:42:17.091Z,103701.44
2023-02-04T21:44:46.823Z,103710.06
2023-02-04T21:47:19.393Z,103708.34
2023-02-04T21:49:49.132Z,103702.22
2023-02-04T21:52:18.919Z,103702.22
2023-02-04T21:54:48.714Z,103702.22
2023-02-04T21:57:18.627Z,103700.38
2023-02-04T21:59:49.256Z,103710.97
2023-02-04T22:02:21.756Z,103704.06
2023-02-04T22:04:51.585Z,103707.72
2023-02-04T22:07:21.598Z,103706.69
2023-02-04T22:09:51.644Z,103705.09
2023-02-04T22:12:22.418Z,103707.59
2023-02-04T22:14:52.224Z,103708.22
2023-02-04T22:17:24.659Z,103700.84
2023-02-04T22:19:54.512Z,103692.72
2023-02-04T22:22:24.333Z,103689.19
2023-02-04T22:24:54.269Z,103697.66
2023-02-04T22:27:24.066Z,103692.44
2023-02-04T22:29:54.044Z,103694.25
2023-02-04T22:32:26.695Z,103693.50
2023-02-04T22:34:56.528Z,103700.56
2023-02-04T22:37:26.581Z,103692.56
2023-02-04T22:39:56.590Z,103689.03
2023-02-04T22:42:26.425Z,103685.66
2023-02-04T22:44:56.400Z,103678.72
2023-02-04T22:47:28.970Z,103676.25
2023-02-04T22:49:59.029Z,103672.06
2023-02-04T22:52:28.971Z,103662.53
2023-02-04T22:54:58.841Z,103659.16
2023-02-04T22:57:28.801Z,103670.53
2023-02-04T22:59:58.575Z,103667.13
2023-02-04T23:02:31.040Z,103660.34
2023-02-04T23:05:03.355Z,103648.97
2023-02-04T23:07:33.780Z,103634.19
2023-02-04T23:10:03.602Z,103637.59
2023-02-04T23:12:33.407Z,103626.06
2023-02-04T23:15:03.187Z,103633.13
2023-02-04T23:17:35.884Z,103635.72
2023-02-04T23:20:06.526Z,103638.50
2023-02-04T23:22:36.583Z,103630.03
2023-02-04T23:25:06.864Z,103623.25
2023-02-04T23:27:36.819Z,103624.00
2023-02-04T23:30:07.347Z,103622.34
2023-02-04T23:32:39.822Z,103615.41
2023-02-04T23:35:10.423Z,103612.78
2023-02-04T23:37:40.374Z,103601.53
2023-02-04T23:40:11.219Z,103591.06
2023-02-04T23:42:41.263Z,103578.13
2023-02-04T23:45:11.735Z,103570.44
2023-02-04T23:47:44.166Z,103572.91
2023-02-04T23:50:14.495Z,103567.66
2023-02-04T23:52:44.543Z,103568.56
2023-02-04T23:55:14.363Z,103561.53
2023-02-04T23:57:49.508Z,103560.59
